Weather Data

Pearl Creek Farm: 8878 N Farm Road 75, Walnut Grove MO 65770

<== Previous Day (Monday 14 Jan 2008) | Next Day (Wednesday 16 Jan 2008) ==>

Summary Precipitation Data For Tuesday 15 January 2008

ElementValueUnits
Precipitation0"
Notes(none)
SourceSpringfield-Branson National Airport (SGF)

Summary Temperature Data For Tuesday 15 January 2008

ElementValueUnits
High Temperature47 oF
Low Temperature18 oF
Average Temperature32 oF
High Humidity75 %
Low Humidity44 %
Average Humidity62 %
SourceSpringfield-Branson National Airport (SGF)

Detail Temperature Data For Tuesday 15 January 2008

Date / TimeTemp (F)RH (%)Dew Pt (F)Report Date / TimeSource
2008-01-15 18:52:00 39 57 25.0 2017-12-29 19:14:24.89625 Springfield-Branson National Airport (SGF)
2008-01-15 00:52:00 24 71 16.0 2017-12-29 19:14:24.89625 Springfield-Branson National Airport (SGF)
2008-01-15 01:52:00 22 75 15.0 2017-12-29 19:14:24.89625 Springfield-Branson National Airport (SGF)
2008-01-15 02:52:00 21 74 14.0 2017-12-29 19:14:24.89625 Springfield-Branson National Airport (SGF)
2008-01-15 03:52:00 20 71 12.0 2017-12-29 19:14:24.89625 Springfield-Branson National Airport (SGF)
2008-01-15 04:52:00 18 74 11.0 2017-12-29 19:14:24.89625 Springfield-Branson National Airport (SGF)
2008-01-15 05:52:00 20 65 10.0 2017-12-29 19:14:24.89625 Springfield-Branson National Airport (SGF)
2008-01-15 06:52:00 18 74 11.0 2017-12-29 19:14:24.89625 Springfield-Branson National Airport (SGF)
2008-01-15 07:52:00 20 74 13.0 2017-12-29 19:14:24.89625 Springfield-Branson National Airport (SGF)
2008-01-15 08:52:00 24 71 16.0 2017-12-29 19:14:24.89625 Springfield-Branson National Airport (SGF)
2008-01-15 09:52:00 28 63 17.0 2017-12-29 19:14:24.89625 Springfield-Branson National Airport (SGF)
2008-01-15 10:52:00 33 56 19.0 2017-12-29 19:14:24.89625 Springfield-Branson National Airport (SGF)
2008-01-15 11:52:00 37 54 22.0 2017-12-29 19:14:24.89625 Springfield-Branson National Airport (SGF)
2008-01-15 12:52:00 41 49 23.0 2017-12-29 19:14:24.89625 Springfield-Branson National Airport (SGF)
2008-01-15 13:52:00 44 47 25.0 2017-12-29 19:14:24.89625 Springfield-Branson National Airport (SGF)
2008-01-15 14:52:00 46 46 26.0 2017-12-29 19:14:24.89625 Springfield-Branson National Airport (SGF)
2008-01-15 15:52:00 47 44 26.0 2017-12-29 19:14:24.89625 Springfield-Branson National Airport (SGF)
2008-01-15 16:52:00 44 49 26.0 2017-12-29 19:14:24.89625 Springfield-Branson National Airport (SGF)
2008-01-15 17:52:00 40 58 26.0 2017-12-29 19:14:24.89625 Springfield-Branson National Airport (SGF)
2008-01-15 19:52:00 38 60 25.0 2017-12-29 19:14:24.89625 Springfield-Branson National Airport (SGF)
2008-01-15 20:52:00 37 62 25.0 2017-12-29 19:14:24.89625 Springfield-Branson National Airport (SGF)
2008-01-15 21:52:00 36 64 25.0 2017-12-29 19:14:24.89625 Springfield-Branson National Airport (SGF)
2008-01-15 22:52:00 35 70 26.0 2017-12-29 19:14:24.89625 Springfield-Branson National Airport (SGF)
2008-01-15 23:52:00 35 70 26.0 2017-12-29 19:14:24.89625 Springfield-Branson National Airport (SGF)

A total of 24 rows are displayed.